Time;durP1;ratioP1;P1;durP2;ratioP2;P2;SDS_P1;SDS_P2;PMS_P1;PMS_P2;Temp;Humidity;BMP_temperature;BMP_pressure;BME280_temperature;BME280_humidity;BME280_pressure;Samples;Min_cycle;Max_cycle;Signal;HPM_P1;HPM_P2
2022/12/24 00:00:19;;;;;;;33.60;18.15;;;6.80;99.90;;;;;;4967824;28;20129;-81
2022/12/24 00:02:44;;;;;;;39.45;17.63;;;6.80;99.90;;;;;;4967647;28;20057;-80
2022/12/24 00:05:10;;;;;;;29.58;17.38;;;6.80;99.90;;;;;;4968163;28;20039;-80
2022/12/24 00:07:36;;;;;;;37.40;18.65;;;6.80;99.90;;;;;;4967107;28;20038;-81
2022/12/24 00:10:02;;;;;;;30.92;17.98;;;6.80;99.90;;;;;;4968151;28;20042;-80
2022/12/24 00:12:28;;;;;;;30.50;18.35;;;6.80;99.90;;;;;;4968540;28;20093;-81
2022/12/24 00:14:53;;;;;;;32.22;17.63;;;6.80;99.90;;;;;;4967366;28;20082;-81
2022/12/24 00:17:19;;;;;;;32.45;16.25;;;6.80;99.90;;;;;;4968250;28;20544;-81
2022/12/24 00:19:44;;;;;;;47.80;20.38;;;6.70;99.90;;;;;;4968982;28;20051;-81
2022/12/24 00:22:10;;;;;;;26.65;16.90;;;6.80;99.90;;;;;;4968502;28;20062;-81
2022/12/24 00:24:36;;;;;;;32.50;16.58;;;6.70;99.90;;;;;;4968192;28;20074;-81
2022/12/24 00:27:02;;;;;;;32.25;15.18;;;6.80;99.90;;;;;;4941023;29;20043;-81
2022/12/24 00:29:28;;;;;;;45.00;19.27;;;6.80;99.90;;;;;;4949275;28;20058;-81
2022/12/24 00:31:53;;;;;;;28.95;14.98;;;6.80;99.90;;;;;;4947794;28;20070;-81
2022/12/24 00:34:21;;;;;;;23.88;14.82;;;6.80;99.90;;;;;;4948045;29;20043;-81
2022/12/24 00:36:47;;;;;;;34.55;17.40;;;6.80;99.90;;;;;;4948145;28;20487;-80
2022/12/24 00:39:12;;;;;;;42.28;20.33;;;6.80;99.90;;;;;;4948838;29;20094;-80
2022/12/24 00:41:38;;;;;;;33.33;15.15;;;6.70;99.90;;;;;;4951764;28;20126;-80
2022/12/24 00:44:05;;;;;;;41.33;19.52;;;6.80;99.90;;;;;;4967826;28;20047;-80
2022/12/24 00:46:33;;;;;;;31.67;16.95;;;6.80;99.90;;;;;;4967635;28;20173;-80
2022/12/24 00:48:59;;;;;;;35.25;17.13;;;6.70;99.90;;;;;;4968455;28;20051;-81
2022/12/24 00:51:25;;;;;;;43.80;19.70;;;6.70;99.90;;;;;;4967875;28;20042;-81
2022/12/24 00:53:51;;;;;;;34.72;16.23;;;6.70;99.90;;;;;;4967843;28;20068;-81
2022/12/24 00:56:16;;;;;;;30.40;15.80;;;6.80;99.90;;;;;;4967006;28;20102;-80
2022/12/24 00:58:42;;;;;;;36.40;17.38;;;6.80;99.90;;;;;;4967952;28;20609;-80
2022/12/24 01:01:08;;;;;;;35.17;17.60;;;6.80;99.90;;;;;;4966705;28;20042;-81
2022/12/24 01:03:36;;;;;;;40.90;19.48;;;6.70;99.90;;;;;;4966876;28;20078;-80
2022/12/24 01:06:04;;;;;;;36.60;20.20;;;6.70;99.90;;;;;;4967933;28;20074;-80
2022/12/24 01:08:31;;;;;;;30.83;17.20;;;6.70;99.90;;;;;;4966812;28;20086;-81
2022/12/24 01:10:57;;;;;;;34.72;17.33;;;6.80;99.90;;;;;;4966613;28;20055;-81
2022/12/24 01:13:23;;;;;;;39.90;18.02;;;6.70;99.90;;;;;;4967691;28;20059;-81
2022/12/24 01:15:49;;;;;;;50.30;19.92;;;6.70;99.90;;;;;;4966442;28;20446;-81
2022/12/24 01:18:15;;;;;;;31.75;15.77;;;6.70;99.90;;;;;;4968306;28;20039;-80
2022/12/24 01:20:41;;;;;;;55.85;20.85;;;6.70;99.90;;;;;;4967855;28;20042;-81
2022/12/24 01:23:06;;;;;;;55.33;21.58;;;6.70;99.90;;;;;;4967817;28;20043;-81
2022/12/24 01:25:32;;;;;;;38.65;18.42;;;6.70;99.90;;;;;;4967605;28;20054;-81
2022/12/24 01:27:58;;;;;;;38.72;16.70;;;6.70;99.90;;;;;;4949122;28;20047;-81
2022/12/24 01:30:23;;;;;;;45.60;19.30;;;6.70;99.90;;;;;;4947321;29;20062;-81
2022/12/24 01:32:49;;;;;;;44.88;21.45;;;6.70;99.90;;;;;;4947092;29;20466;-81
2022/12/24 01:35:14;;;;;;;47.72;20.98;;;6.70;99.90;;;;;;4948977;29;20051;-81
2022/12/24 01:37:41;;;;;;;25.42;15.55;;;6.80;99.90;;;;;;4947052;29;20486;-80
2022/12/24 01:45:41;;;;;;;45.65;21.13;;;6.80;99.90;;;;;;4965435;28;20066;-80
2022/12/24 01:48:13;;;;;;;39.15;18.33;;;6.70;99.90;;;;;;4965763;28;20059;-81
2022/12/24 01:50:38;;;;;;;;;;;6.70;99.90;;;;;;4970822;28;20054;-81
2022/12/24 01:53:05;;;;;;;42.97;20.15;;;6.80;99.90;;;;;;4970196;28;19937;-81
2022/12/24 01:55:31;;;;;;;28.50;17.42;;;6.80;99.90;;;;;;4970887;28;20049;-80
2022/12/24 01:57:58;;;;;;;43.28;21.80;;;6.70;99.90;;;;;;4970765;28;20486;-81
2022/12/24 02:00:24;;;;;;;40.53;19.33;;;6.70;99.90;;;;;;4968833;28;20061;-81
2022/12/24 02:02:51;;;;;;;35.33;17.83;;;6.80;99.90;;;;;;4970429;28;20043;-81
2022/12/24 02:05:31;;;;;;;34.80;18.05;;;6.80;99.90;;;;;;4971265;28;20563;-80
2022/12/24 02:07:59;;;;;;;27.33;16.05;;;6.80;99.90;;;;;;4966162;28;20051;-81
2022/12/24 02:10:24;;;;;;;36.80;19.00;;;6.80;99.90;;;;;;4970256;28;20053;-81
2022/12/24 02:12:51;;;;;;;42.90;19.25;;;6.80;99.90;;;;;;4970370;28;20050;-81
2022/12/24 02:15:19;;;;;;;31.83;17.50;;;6.80;99.90;;;;;;4968569;28;20109;-81
2022/12/24 02:18:09;;;;;;;27.45;15.85;;;6.80;99.90;;;;;;4955117;28;20039;-81
2022/12/24 02:20:48;;;;;;;27.88;15.55;;;6.70;99.90;;;;;;4950416;29;20090;-81
2022/12/24 02:23:39;;;;;;;23.63;14.80;;;6.80;99.90;;;;;;4967462;28;20207;-80
2022/12/24 02:26:23;;;;;;;20.42;12.07;;;6.70;99.90;;;;;;4968256;28;20039;-81
2022/12/24 02:29:13;;;;;;;20.63;13.25;;;6.80;99.90;;;;;;4949899;29;20055;-81
2022/12/24 02:32:02;;;;;;;26.60;16.17;;;6.80;99.90;;;;;;4950211;29;20418;-81
2022/12/24 02:34:41;;;;;;;21.35;12.55;;;6.90;99.90;;;;;;4950837;28;20195;-81
2022/12/24 02:37:18;;;;;;;23.52;13.27;;;7.00;99.90;;;;;;4950792;28;20058;-81
2022/12/24 02:39:47;;;;;;;26.17;13.60;;;7.00;99.90;;;;;;4950111;29;20074;-81
2022/12/24 02:42:19;;;;;;;23.20;13.75;;;7.00;99.90;;;;;;4950830;29;20062;-81
2022/12/24 02:44:58;;;;;;;15.75;11.15;;;7.10;99.90;;;;;;4964373;28;20105;-81
2022/12/24 02:47:27;;;;;;;25.85;13.25;;;7.20;99.90;;;;;;4969894;28;20126;-81
2022/12/24 02:49:53;;;;;;;19.63;11.57;;;7.20;99.90;;;;;;4970055;28;20043;-81
2022/12/24 02:52:38;;;;;;;16.77;10.18;;;7.20;99.90;;;;;;4969982;28;20321;-81
2022/12/24 02:55:10;;;;;;;20.52;11.27;;;7.20;99.90;;;;;;4968864;28;20145;-81
2022/12/24 03:00:22;;;;;;;14.60;9.15;;;7.30;99.90;;;;;;4991238;28;20129;-81
2022/12/24 03:03:16;;;;;;;14.70;7.80;;;7.30;99.90;;;;;;4999684;28;20173;-80
2022/12/24 03:05:48;;;;;;;13.55;7.38;;;7.20;99.90;;;;;;4987839;28;20117;-80
2022/12/24 03:08:26;;;;;;;;;;;7.20;99.90;;;;;;4989387;28;20061;-80
2022/12/24 03:11:04;;;;;;;20.92;9.75;;;7.30;99.90;;;;;;4987305;28;19945;-81
2022/12/24 03:13:30;;;;;;;21.13;9.02;;;7.30;99.90;;;;;;4988580;28;20069;-80
2022/12/24 03:15:56;;;;;;;18.23;8.55;;;7.30;99.90;;;;;;4986100;28;20088;-80
2022/12/24 03:18:26;;;;;;;34.65;8.98;;;7.40;99.90;;;;;;4988563;28;20042;-80
2022/12/24 03:21:21;;;;;;;13.82;6.57;;;7.40;99.90;;;;;;4988319;28;20042;-81
2022/12/24 03:23:47;;;;;;;18.85;9.52;;;7.40;99.90;;;;;;4984574;28;20126;-80
2022/12/24 03:26:15;;;;;;;17.45;8.38;;;7.50;99.90;;;;;;4991786;28;20459;-80
2022/12/24 03:28:42;;;;;;;22.55;9.15;;;7.50;99.90;;;;;;5008402;28;20069;-80
2022/12/24 03:31:09;;;;;;;34.20;9.80;;;7.50;99.90;;;;;;4989690;28;20084;-80
2022/12/24 03:33:34;;;;;;;21.73;8.40;;;7.50;99.90;;;;;;5008436;28;20050;-80
2022/12/24 03:36:00;;;;;;;24.92;8.57;;;7.50;99.90;;;;;;5008128;28;20037;-80
2022/12/24 03:38:26;;;;;;;30.95;9.30;;;7.50;99.90;;;;;;5006864;28;20492;-80
2022/12/24 03:40:51;;;;;;;31.08;10.15;;;7.50;99.90;;;;;;5007104;28;20050;-81
2022/12/24 03:43:17;;;;;;;18.73;8.18;;;7.50;99.90;;;;;;5008725;28;20041;-80
2022/12/24 03:45:43;;;;;;;24.55;8.10;;;7.60;99.90;;;;;;5002427;28;20037;-80
2022/12/24 03:48:08;;;;;;;18.55;7.90;;;7.60;99.90;;;;;;4988519;28;20073;-80
2022/12/24 03:50:34;;;;;;;24.73;8.27;;;7.50;99.90;;;;;;4988496;28;20400;-80
2022/12/24 03:53:00;;;;;;;20.52;7.70;;;7.50;99.90;;;;;;4988103;28;20054;-80
2022/12/24 03:55:25;;;;;;;28.98;7.63;;;7.50;99.90;;;;;;4988302;28;20045;-80
2022/12/24 03:57:51;;;;;;;22.65;7.85;;;7.50;99.90;;;;;;4987882;28;20045;-81
2022/12/24 04:00:17;;;;;;;21.70;7.43;;;7.50;99.90;;;;;;4987711;28;20065;-80
2022/12/24 04:02:43;;;;;;;20.33;8.80;;;7.50;99.90;;;;;;4988378;28;20043;-80
2022/12/24 04:05:14;;;;;;;27.83;8.10;;;7.40;99.90;;;;;;4988043;28;20445;-80
2022/12/24 04:07:40;;;;;;;13.43;6.25;;;7.40;99.90;;;;;;4988280;28;20121;-80
2022/12/24 04:10:06;;;;;;;17.42;6.90;;;7.40;99.90;;;;;;4970629;28;20129;-80
2022/12/24 04:12:32;;;;;;;25.42;6.80;;;7.40;99.90;;;;;;4970668;28;20599;-80
2022/12/24 04:14:57;;;;;;;20.42;7.00;;;7.40;99.90;;;;;;4985519;28;20046;-80
2022/12/24 04:17:23;;;;;;;26.83;5.75;;;7.40;99.90;;;;;;4988015;28;20558;-80
2022/12/24 04:19:48;;;;;;;28.02;6.60;;;7.30;99.90;;;;;;4988387;28;20042;-81
2022/12/24 04:22:14;;;;;;;30.80;5.93;;;7.40;99.90;;;;;;4993364;28;20049;-80
2022/12/24 04:24:39;;;;;;;19.80;6.20;;;7.30;99.90;;;;;;4987813;28;20041;-80
2022/12/24 04:27:05;;;;;;;33.05;6.50;;;7.40;99.90;;;;;;4991120;28;20042;-80
2022/12/24 04:29:30;;;;;;;38.38;8.55;;;7.40;99.90;;;;;;4990516;28;20042;-80
2022/12/24 04:31:56;;;;;;;34.90;6.95;;;7.40;99.90;;;;;;5000009;28;20058;-80
2022/12/24 04:34:22;;;;;;;14.95;5.38;;;7.40;99.90;;;;;;5004250;28;20425;-82
2022/12/24 04:36:47;;;;;;;24.90;6.18;;;7.40;99.90;;;;;;4984532;28;20050;-79
2022/12/24 04:39:13;;;;;;;25.30;7.93;;;7.40;99.90;;;;;;4987791;28;20042;-79
2022/12/24 04:41:38;;;;;;;44.10;9.02;;;7.40;99.90;;;;;;4987644;28;20548;-79
2022/12/24 04:44:04;;;;;;;21.38;6.30;;;7.40;99.90;;;;;;4987417;28;20034;-79
2022/12/24 04:46:30;;;;;;;32.58;6.72;;;7.40;99.90;;;;;;4987111;28;20054;-79
2022/12/24 04:48:56;;;;;;;36.80;8.75;;;7.40;99.90;;;;;;4987320;28;20046;-79
2022/12/24 04:51:23;;;;;;;25.40;7.72;;;7.40;99.90;;;;;;4986329;28;20076;-80
2022/12/24 04:53:49;;;;;;;30.35;8.65;;;7.40;99.90;;;;;;5005804;28;20053;-80
2022/12/24 04:56:27;;;;;;;29.30;6.85;;;7.40;99.90;;;;;;5007393;28;20046;-79
2022/12/24 04:58:53;;;;;;;46.33;8.90;;;7.40;99.90;;;;;;5006868;28;20129;-79
2022/12/24 05:01:22;;;;;;;19.52;6.65;;;7.50;99.90;;;;;;4997463;28;20125;-80
2022/12/24 05:03:47;;;;;;;30.73;7.68;;;7.40;99.90;;;;;;4987845;28;20089;-79
2022/12/24 05:06:16;;;;;;;22.63;6.82;;;7.50;99.90;;;;;;4986027;28;20086;-79
2022/12/24 05:08:42;;;;;;;25.13;7.63;;;7.50;99.90;;;;;;4986400;28;20038;-79
2022/12/24 05:11:09;;;;;;;29.02;8.73;;;7.50;99.90;;;;;;4985792;28;20057;-79
2022/12/24 05:13:34;;;;;;;33.25;7.57;;;7.50;99.90;;;;;;4986145;28;20043;-79
2022/12/24 05:16:00;;;;;;;43.92;8.02;;;7.50;99.90;;;;;;4986218;28;20378;-79
2022/12/24 05:18:26;;;;;;;24.95;8.13;;;7.50;99.90;;;;;;4986093;28;20042;-78
2022/12/24 05:20:51;;;;;;;27.15;7.80;;;7.60;99.90;;;;;;5004226;28;20492;-80
2022/12/24 05:26:21;;;;;;;36.85;8.13;;;7.60;99.90;;;;;;4991631;28;20420;-79
2022/12/24 05:28:47;;;;;;;;;;;7.60;99.90;;;;;;5011495;28;20125;-79
2022/12/24 05:31:13;;;;;;;19.95;6.85;;;7.60;99.90;;;;;;5009636;28;19925;-79
2022/12/24 05:33:38;;;;;;;34.97;9.25;;;7.60;99.90;;;;;;5009161;28;20062;-79
2022/12/24 05:36:05;;;;;;;18.88;6.50;;;7.60;99.90;;;;;;5010117;28;20101;-80
2022/12/24 05:38:30;;;;;;;21.05;7.95;;;7.60;99.90;;;;;;5009501;28;20069;-80
2022/12/24 05:40:56;;;;;;;40.53;8.57;;;7.60;99.90;;;;;;5010302;28;20042;-80
2022/12/24 05:43:21;;;;;;;24.58;7.40;;;7.60;99.90;;;;;;5010673;28;20077;-79
2022/12/24 05:45:47;;;;;;;21.00;4.60;;;7.60;99.90;;;;;;5010299;28;20432;-79
2022/12/24 05:48:13;;;;;;;39.67;7.32;;;7.60;99.90;;;;;;5009978;28;20120;-80
2022/12/24 05:50:39;;;;;;;18.45;6.07;;;7.60;99.90;;;;;;5008130;28;20054;-80
2022/12/24 05:53:06;;;;;;;26.08;6.40;;;7.60;99.90;;;;;;5010136;28;20038;-80
2022/12/24 05:55:31;;;;;;;33.20;9.05;;;7.50;99.90;;;;;;4984910;28;20049;-79
2022/12/24 05:57:57;;;;;;;39.88;9.30;;;7.50;99.90;;;;;;5009919;28;20038;-79
2022/12/24 06:00:23;;;;;;;41.80;7.30;;;7.50;99.90;;;;;;5008196;28;20061;-79
2022/12/24 06:02:48;;;;;;;22.33;7.28;;;7.50;99.90;;;;;;5009983;28;20048;-80
2022/12/24 06:05:14;;;;;;;21.02;5.70;;;7.50;99.90;;;;;;5010039;28;20046;-80
2022/12/24 06:07:40;;;;;;;32.85;5.63;;;7.40;99.90;;;;;;5004635;28;20039;-80
2022/12/24 06:10:09;;;;;;;17.67;6.05;;;7.40;99.90;;;;;;5004756;28;20527;-80
2022/12/24 06:12:35;;;;;;;21.80;5.20;;;7.40;99.90;;;;;;4997351;28;20038;-80
2022/12/24 06:15:00;;;;;;;22.42;6.90;;;7.30;99.90;;;;;;5008280;28;20424;-80
2022/12/24 06:17:26;;;;;;;21.70;5.65;;;7.30;99.90;;;;;;5005339;28;20039;-80
2022/12/24 06:19:51;;;;;;;24.08;5.97;;;7.30;99.90;;;;;;4972078;28;20054;-80
2022/12/24 06:22:17;;;;;;;26.42;7.97;;;7.30;99.90;;;;;;4990512;28;20035;-80
2022/12/24 06:24:43;;;;;;;18.17;6.07;;;7.20;99.90;;;;;;4988712;28;20054;-80
2022/12/24 06:27:09;;;;;;;19.42;4.95;;;7.20;99.90;;;;;;5000335;28;20033;-80
2022/12/24 06:29:34;;;;;;;34.92;6.75;;;7.20;99.90;;;;;;5007567;28;20896;-80
2022/12/24 06:32:00;;;;;;;26.25;6.78;;;7.20;99.90;;;;;;5009036;28;20042;-80
2022/12/24 06:34:26;;;;;;;16.10;5.53;;;7.20;99.90;;;;;;5008597;28;20044;-80
2022/12/24 06:36:51;;;;;;;21.13;6.22;;;7.20;99.90;;;;;;5007949;28;20068;-81
2022/12/24 06:39:17;;;;;;;23.40;6.22;;;7.20;99.90;;;;;;5000797;28;20031;-80
2022/12/24 06:41:42;;;;;;;22.70;5.05;;;7.20;99.90;;;;;;5000769;28;20755;-80
2022/12/24 06:44:08;;;;;;;25.15;6.00;;;7.10;99.90;;;;;;4997636;28;20060;-80
2022/12/24 06:46:34;;;;;;;13.95;4.47;;;7.10;99.90;;;;;;4998479;28;20038;-79
2022/12/24 06:48:59;;;;;;;19.25;6.15;;;7.10;99.90;;;;;;4990504;28;20129;-80
2022/12/24 06:51:25;;;;;;;15.93;5.82;;;7.10;99.90;;;;;;4989573;28;20034;-80
2022/12/24 06:53:51;;;;;;;10.30;5.47;;;7.00;99.90;;;;;;4997439;28;20099;-80
2022/12/24 06:56:19;;;;;;;20.08;4.97;;;7.00;99.90;;;;;;5008823;28;20038;-80
2022/12/24 06:58:44;;;;;;;16.02;3.97;;;6.90;99.90;;;;;;5008895;28;20046;-80
2022/12/24 07:01:15;;;;;;;16.88;6.75;;;6.90;99.90;;;;;;5003690;28;20057;-80
2022/12/24 07:03:41;;;;;;;23.52;6.38;;;6.80;99.90;;;;;;5001698;28;20042;-79
2022/12/24 07:06:11;;;;;;;25.02;5.15;;;6.90;99.90;;;;;;4991835;28;20073;-79
2022/12/24 07:08:37;;;;;;;25.52;5.60;;;6.80;99.90;;;;;;4989441;28;20034;-79
2022/12/24 07:11:03;;;;;;;21.90;4.85;;;6.80;99.90;;;;;;4989716;28;20112;-80
2022/12/24 07:13:30;;;;;;;22.20;6.10;;;6.80;99.90;;;;;;4971976;28;20560;-79
2022/12/24 07:15:58;;;;;;;18.95;4.82;;;6.70;99.90;;;;;;4987975;28;20104;-79
2022/12/24 07:18:24;;;;;;;19.00;5.18;;;6.70;99.90;;;;;;4989647;28;20038;-79
2022/12/24 07:20:50;;;;;;;17.17;5.10;;;6.70;99.90;;;;;;4992701;28;20488;-81
2022/12/24 07:23:15;;;;;;;18.42;6.32;;;6.70;99.90;;;;;;5004848;28;20050;-80
2022/12/24 07:25:42;;;;;;;30.98;5.40;;;6.60;99.90;;;;;;4971800;28;20050;-80
2022/12/24 07:28:07;;;;;;;16.75;4.72;;;6.60;99.90;;;;;;5006978;28;20373;-80
2022/12/24 07:30:33;;;;;;;22.73;4.95;;;6.60;99.90;;;;;;5007579;28;20049;-80
2022/12/24 07:32:59;;;;;;;19.35;5.82;;;6.50;99.90;;;;;;5008506;28;20689;-80
2022/12/24 07:35:24;;;;;;;14.27;4.85;;;6.50;99.90;;;;;;5006909;28;20042;-80
2022/12/24 07:37:50;;;;;;;12.80;3.88;;;6.50;99.90;;;;;;5006471;28;20046;-81
2022/12/24 07:40:15;;;;;;;10.82;3.88;;;6.50;99.90;;;;;;4996778;28;20408;-80
2022/12/24 07:42:41;;;;;;;16.10;5.60;;;6.60;99.90;;;;;;4990251;28;20101;-80
2022/12/24 07:45:07;;;;;;;14.65;5.15;;;6.50;99.90;;;;;;4986375;28;20057;-80
2022/12/24 07:47:33;;;;;;;11.40;4.78;;;6.50;99.90;;;;;;4987785;28;20043;-80
2022/12/24 07:49:59;;;;;;;12.88;4.75;;;6.50;99.90;;;;;;4972171;28;20104;-80
2022/12/24 07:52:24;;;;;;;22.25;5.32;;;6.50;99.90;;;;;;5007100;28;20046;-81
2022/12/24 07:54:50;;;;;;;19.27;6.68;;;6.50;99.90;;;;;;4985588;28;20141;-81
2022/12/24 07:57:16;;;;;;;13.88;5.20;;;6.50;99.90;;;;;;4997337;28;20042;-81
2022/12/24 07:59:42;;;;;;;26.30;6.18;;;6.60;99.90;;;;;;5005893;28;20161;-80
2022/12/24 08:02:10;;;;;;;17.08;5.28;;;6.60;99.90;;;;;;4994656;28;20050;-80
2022/12/24 08:04:36;;;;;;;18.10;5.45;;;6.60;99.90;;;;;;4988722;28;20046;-81
2022/12/24 08:07:05;;;;;;;21.10;5.97;;;6.60;99.90;;;;;;5000439;28;20062;-80
2022/12/24 08:09:35;;;;;;;17.27;5.20;;;6.60;99.90;;;;;;4988561;28;20109;-80
2022/12/24 08:12:01;;;;;;;19.60;5.53;;;6.70;99.90;;;;;;4996521;28;20026;-80
2022/12/24 08:14:30;;;;;;;25.52;6.30;;;6.70;99.90;;;;;;5005883;28;20092;-80
2022/12/24 08:16:56;;;;;;;21.95;5.88;;;6.70;99.90;;;;;;4994801;28;20121;-80
2022/12/24 08:19:23;;;;;;;27.70;6.75;;;6.70;99.90;;;;;;4996558;28;20125;-80
2022/12/24 08:21:49;;;;;;;22.05;6.22;;;6.70;99.90;;;;;;5004478;28;20042;-80
2022/12/24 08:24:17;;;;;;;22.08;5.68;;;6.80;99.90;;;;;;5007638;28;20065;-80
2022/12/24 08:26:42;;;;;;;18.77;7.60;;;6.70;99.90;;;;;;4997149;28;20429;-80
2022/12/24 08:29:08;;;;;;;29.27;6.85;;;6.80;99.90;;;;;;5003512;28;20045;-78
2022/12/24 08:31:35;;;;;;;18.20;9.35;;;6.80;99.90;;;;;;4995366;28;20500;-76
2022/12/24 08:34:05;;;;;;;26.05;5.75;;;6.80;99.90;;;;;;5002867;28;20049;-81
2022/12/24 08:36:31;;;;;;;31.30;5.65;;;6.80;99.90;;;;;;4999337;28;20042;-78
2022/12/24 08:38:56;;;;;;;27.85;6.10;;;6.90;99.90;;;;;;4977093;28;20042;-79
2022/12/24 08:41:22;;;;;;;12.75;5.88;;;7.00;99.90;;;;;;5002065;28;20049;-78
2022/12/24 08:43:47;;;;;;;18.10;6.03;;;6.90;99.90;;;;;;5004473;28;20476;-78
2022/12/24 08:46:13;;;;;;;18.23;6.65;;;7.00;99.90;;;;;;5002314;28;20069;-79
2022/12/24 08:48:39;;;;;;;17.58;5.60;;;7.00;99.90;;;;;;4996414;28;20429;-78
2022/12/24 08:51:09;;;;;;;17.23;5.82;;;7.00;99.90;;;;;;4988182;28;20042;-77
2022/12/24 08:53:35;;;;;;;20.05;6.07;;;7.10;99.90;;;;;;4997414;28;20120;-77
2022/12/24 08:56:06;;;;;;;28.20;5.88;;;7.10;99.90;;;;;;5005011;28;20133;-78
2022/12/24 08:58:32;;;;;;;19.83;7.07;;;7.20;99.90;;;;;;5005232;28;20057;-79
2022/12/24 09:00:58;;;;;;;31.30;7.38;;;7.20;99.90;;;;;;5002657;28;20122;-79
2022/12/24 09:03:24;;;;;;;31.40;8.27;;;7.20;99.90;;;;;;4993833;28;20053;-79
2022/12/24 09:05:49;;;;;;;25.15;6.32;;;7.30;99.90;;;;;;5006867;28;20412;-80
2022/12/24 09:08:15;;;;;;;17.40;6.20;;;7.30;99.90;;;;;;5010345;28;20267;-77
2022/12/24 09:10:41;;;;;;;23.00;7.53;;;7.30;99.90;;;;;;5006871;28;20049;-77
2022/12/24 09:13:06;;;;;;;28.40;8.27;;;7.30;99.90;;;;;;5002830;28;20030;-77
2022/12/24 09:15:32;;;;;;;23.67;6.53;;;7.40;99.90;;;;;;5004515;28;20116;-77
2022/12/24 09:17:57;;;;;;;21.92;6.68;;;7.40;99.90;;;;;;5005893;28;20064;-77
2022/12/24 09:20:23;;;;;;;37.10;7.70;;;7.50;99.90;;;;;;5008156;28;20521;-77
2022/12/24 09:22:49;;;;;;;39.33;9.55;;;7.50;99.90;;;;;;5005555;28;20050;-79
2022/12/24 09:25:14;;;;;;;35.90;6.90;;;7.50;99.90;;;;;;5009401;28;20045;-78
2022/12/24 09:27:40;;;;;;;21.92;5.85;;;7.60;99.90;;;;;;5009663;28;20065;-77
2022/12/24 09:30:07;;;;;;;28.80;8.27;;;7.60;99.90;;;;;;5008247;28;20045;-79
2022/12/24 09:32:33;;;;;;;26.10;7.57;;;7.60;99.90;;;;;;5010165;28;20061;-79
2022/12/24 09:34:58;;;;;;;30.42;6.97;;;7.70;99.90;;;;;;5009276;28;20049;-78
2022/12/24 09:37:24;;;;;;;30.27;7.22;;;7.70;99.90;;;;;;5009665;28;20037;-79
2022/12/24 09:39:50;;;;;;;23.15;8.30;;;7.70;99.90;;;;;;5004924;28;20400;-78
2022/12/24 09:42:15;;;;;;;24.27;6.68;;;7.70;99.90;;;;;;5007470;28;20038;-77
2022/12/24 09:44:47;;;;;;;40.72;7.43;;;7.70;99.90;;;;;;5003868;28;20041;-78
2022/12/24 09:47:25;;;;;;;28.80;8.07;;;7.80;99.90;;;;;;5007841;28;20056;-79
2022/12/24 09:49:53;;;;;;;36.15;7.53;;;7.80;99.90;;;;;;4991883;28;20412;-80
2022/12/24 09:52:32;;;;;;;19.65;6.68;;;7.80;99.90;;;;;;5004056;28;20052;-79
2022/12/24 09:55:05;;;;;;;26.52;6.63;;;7.80;99.90;;;;;;5002783;28;20119;-79
2022/12/24 09:57:36;;;;;;;22.30;5.80;;;7.90;99.90;;;;;;5008315;28;20108;-78
2022/12/24 10:00:03;;;;;;;33.55;5.97;;;7.90;99.90;;;;;;5008813;28;20461;-80
2022/12/24 10:02:30;;;;;;;19.10;6.68;;;7.90;99.90;;;;;;5007433;28;20125;-78
2022/12/24 10:04:56;;;;;;;17.42;6.53;;;7.90;99.90;;;;;;5008963;28;20488;-80
2022/12/24 10:07:47;;;;;;;25.05;7.65;;;7.90;99.90;;;;;;5001496;28;20112;-78
2022/12/24 10:10:42;;;;;;;28.75;7.10;;;8.00;99.90;;;;;;5007133;28;20049;-79
2022/12/24 10:13:29;;;;;;;25.85;6.97;;;8.00;99.90;;;;;;5003599;28;20046;-80
2022/12/24 10:16:12;;;;;;;18.58;7.35;;;8.00;99.90;;;;;;4987938;28;20045;-78
2022/12/24 10:19:22;;;;;;;51.80;9.60;;;8.00;99.90;;;;;;5002443;28;20049;-79
2022/12/24 10:21:48;;;;;;;43.70;8.38;;;8.10;99.90;;;;;;4959394;28;20057;-77
2022/12/24 10:25:03;;;;;;;36.72;9.05;;;8.10;99.90;;;;;;4966606;28;20137;-79
2022/12/24 10:27:38;;;;;;;27.33;8.02;;;8.10;99.90;;;;;;4988087;28;20570;-79
2022/12/24 10:30:16;;;;;;;32.47;7.65;;;8.10;99.90;;;;;;5006068;28;20046;-79
2022/12/24 10:32:42;;;;;;;32.25;5.88;;;8.20;99.90;;;;;;5007539;28;20042;-78
2022/12/24 10:35:17;;;;;;;21.70;5.25;;;8.20;99.90;;;;;;5003577;28;20168;-79
2022/12/24 10:37:46;;;;;;;29.92;7.07;;;8.20;99.90;;;;;;5007917;28;20058;-78
2022/12/24 10:40:45;;;;;;;19.73;6.75;;;8.30;99.90;;;;;;5000169;28;20049;-80
2022/12/24 10:43:15;;;;;;;28.48;6.90;;;8.30;99.90;;;;;;4996573;28;20141;-78
2022/12/24 10:45:45;;;;;;;22.60;6.78;;;8.30;99.90;;;;;;5003005;28;20546;-78
2022/12/24 10:48:20;;;;;;;27.33;8.18;;;8.30;99.90;;;;;;4999986;28;20042;-78
2022/12/24 10:50:57;;;;;;;21.17;6.28;;;8.30;99.90;;;;;;5005668;28;20091;-79
2022/12/24 10:53:37;;;;;;;18.25;5.93;;;8.30;99.90;;;;;;4988162;28;20057;-79
2022/12/24 10:56:06;;;;;;;31.65;6.80;;;8.30;99.90;;;;;;4991223;28;20042;-77
2022/12/24 10:58:33;;;;;;;14.65;6.50;;;8.30;99.90;;;;;;4999874;28;20499;-78
2022/12/24 11:00:59;;;;;;;24.40;5.78;;;8.30;99.90;;;;;;5005747;28;20119;-78
2022/12/24 11:03:33;;;;;;;23.73;6.18;;;8.40;99.90;;;;;;5008268;28;20121;-78
2022/12/24 11:06:14;;;;;;;22.48;5.43;;;8.40;99.90;;;;;;5001931;28;20499;-79
2022/12/24 11:08:42;;;;;;;30.27;6.78;;;8.40;99.90;;;;;;5002911;28;20049;-80
2022/12/24 11:11:33;;;;;;;21.05;5.50;;;8.40;99.90;;;;;;5005027;28;20045;-79
2022/12/24 11:13:58;;;;;;;18.35;6.80;;;8.40;99.90;;;;;;5004638;28;20072;-79
2022/12/24 11:16:29;;;;;;;16.42;5.97;;;8.50;99.90;;;;;;4996276;28;20481;-77
2022/12/24 11:18:57;;;;;;;28.63;8.38;;;8.40;99.90;;;;;;5000267;28;20511;-77
2022/12/24 11:21:29;;;;;;;13.95;5.55;;;8.50;99.90;;;;;;4998942;28;20049;-77
2022/12/24 11:23:58;;;;;;;17.75;6.80;;;8.50;99.90;;;;;;5007091;28;20069;-78
2022/12/24 11:26:30;;;;;;;13.13;5.05;;;8.50;99.90;;;;;;5004379;28;20113;-79
2022/12/24 11:29:21;;;;;;;12.15;4.57;;;8.50;99.90;;;;;;5001602;28;20045;-78
2022/12/24 11:31:47;;;;;;;29.08;4.90;;;8.50;99.90;;;;;;4993441;28;20047;-78
2022/12/24 11:34:31;;;;;;;19.52;5.25;;;8.50;99.90;;;;;;5002237;28;20407;-78
2022/12/24 11:37:19;;;;;;;22.02;5.35;;;8.50;99.90;;;;;;5003690;28;20038;-78
2022/12/24 11:40:00;;;;;;;13.30;3.92;;;8.50;99.90;;;;;;5006323;28;20042;-78
2022/12/24 11:42:31;;;;;;;18.20;5.35;;;8.50;99.90;;;;;;4997746;28;20145;-78
2022/12/24 11:44:58;;;;;;;27.77;10.25;;;8.50;99.90;;;;;;5001834;28;20037;-78
2022/12/24 11:47:35;;;;;;;31.52;4.47;;;8.60;99.90;;;;;;5001572;28;20072;-78
2022/12/24 11:50:20;;;;;;;15.93;4.43;;;8.50;99.90;;;;;;4997343;28;20046;-78
2022/12/24 11:52:59;;;;;;;13.32;2.95;;;8.60;99.90;;;;;;4988378;28;20046;-78
2022/12/24 11:55:47;;;;;;;8.57;3.25;;;8.60;99.90;;;;;;4990754;28;20444;-78
2022/12/24 11:58:42;;;;;;;12.98;3.88;;;8.60;99.90;;;;;;4987588;28;20157;-80
2022/12/24 12:01:17;;;;;;;21.35;4.45;;;8.60;99.90;;;;;;5003970;28;20424;-77
2022/12/24 12:03:50;;;;;;;20.70;5.68;;;8.70;99.90;;;;;;5005686;28;20105;-77
2022/12/24 12:06:34;;;;;;;15.05;4.85;;;8.60;99.90;;;;;;5007882;28;20101;-77
2022/12/24 12:09:05;;;;;;;16.65;4.60;;;8.60;99.90;;;;;;5001488;28;20468;-78
2022/12/24 12:11:33;;;;;;;18.55;4.50;;;8.60;99.90;;;;;;5003033;28;20426;-78
2022/12/24 12:14:02;;;;;;;22.58;4.72;;;8.60;99.90;;;;;;4992891;28;20074;-77
2022/12/24 12:17:06;;;;;;;11.05;3.58;;;8.60;99.90;;;;;;5002876;28;20046;-78
2022/12/24 12:19:44;;;;;;;22.10;3.95;;;8.70;99.90;;;;;;4988337;28;20664;-77
2022/12/24 12:22:36;;;;;;;12.77;4.38;;;8.60;99.90;;;;;;5005328;28;20060;-78
2022/12/24 12:25:05;;;;;;;24.52;5.15;;;8.60;99.90;;;;;;4982758;28;20416;-77
2022/12/24 12:27:36;;;;;;;13.02;3.83;;;8.60;99.90;;;;;;5005225;28;20515;-78
2022/12/24 12:30:05;;;;;;;22.50;5.03;;;8.60;99.90;;;;;;5005067;28;20054;-76
2022/12/24 12:32:58;;;;;;;10.23;3.33;;;8.60;99.90;;;;;;5004869;28;20145;-75
2022/12/24 12:35:29;;;;;;;;;;;8.60;99.90;;;;;;5005477;28;20052;-75
2022/12/24 12:38:01;;;;;;;9.63;3.13;;;8.60;99.90;;;;;;4990562;28;19954;-75
2022/12/24 12:40:59;;;;;;;16.95;4.18;;;8.60;99.90;;;;;;5006471;28;20038;-74
2022/12/24 12:43:58;;;;;;;14.40;3.78;;;8.60;99.90;;;;;;4999375;28;20054;-74
2022/12/24 12:46:37;;;;;;;8.45;3.42;;;8.60;99.90;;;;;;5003534;28;20034;-74
2022/12/24 12:49:24;;;;;;;19.77;4.88;;;8.60;99.90;;;;;;5009173;28;20046;-75
2022/12/24 12:52:09;;;;;;;12.85;4.72;;;8.60;99.90;;;;;;4999948;28;20100;-76
2022/12/24 12:55:00;;;;;;;5.88;3.03;;;8.60;99.90;;;;;;5006331;28;20042;-76
2022/12/24 12:57:31;;;;;;;21.80;5.07;;;8.60;99.90;;;;;;4998420;28;20109;-75
2022/12/24 13:00:03;;;;;;;12.52;4.45;;;8.60;99.90;;;;;;5005548;28;20058;-76
2022/12/24 13:02:40;;;;;;;9.50;4.10;;;8.60;99.90;;;;;;5005520;28;20042;-77
2022/12/24 13:05:43;;;;;;;8.07;3.47;;;8.50;99.90;;;;;;4991035;28;20042;-77
2022/12/24 13:08:22;;;;;;;11.52;4.43;;;8.50;99.90;;;;;;4995646;28;20049;-77
2022/12/24 13:10:57;;;;;;;7.63;2.92;;;8.50;99.90;;;;;;4988983;28;20061;-75